sensor_id;sensor_type;location;lat;lon;timestamp;temperature;humidity
3488;DHT22;38546;48.170;11.724;2023-03-31T00:01:14;7.80;99.90
3488;DHT22;38546;48.170;11.724;2023-03-31T00:04:03;7.80;99.90
3488;DHT22;38546;48.170;11.724;2023-03-31T00:06:53;7.70;99.90
3488;DHT22;38546;48.170;11.724;2023-03-31T00:09:42;7.70;99.90
3488;DHT22;38546;48.170;11.724;2023-03-31T00:12:36;7.70;99.90
3488;DHT22;38546;48.170;11.724;2023-03-31T00:15:26;7.70;99.90
3488;DHT22;38546;48.170;11.724;2023-03-31T00:18:16;7.70;99.90
3488;DHT22;38546;48.170;11.724;2023-03-31T00:21:11;7.60;99.90
3488;DHT22;38546;48.170;11.724;2023-03-31T00:24:13;7.70;99.90
3488;DHT22;38546;48.170;11.724;2023-03-31T00:27:04;7.70;99.90
3488;DHT22;38546;48.170;11.724;2023-03-31T00:29:54;7.70;99.90
3488;DHT22;38546;48.170;11.724;2023-03-31T00:32:43;7.80;99.90
3488;DHT22;38546;48.170;11.724;2023-03-31T00:35:34;7.90;99.90
3488;DHT22;38546;48.170;11.724;2023-03-31T00:38:28;7.90;99.90
3488;DHT22;38546;48.170;11.724;2023-03-31T00:41:18;7.90;99.90
3488;DHT22;38546;48.170;11.724;2023-03-31T00:44:21;7.90;99.90
3488;DHT22;38546;48.170;11.724;2023-03-31T00:47:14;8.00;99.90
3488;DHT22;38546;48.170;11.724;2023-03-31T00:50:17;8.00;99.90
3488;DHT22;38546;48.170;11.724;2023-03-31T00:53:16;8.10;99.90
3488;DHT22;38546;48.170;11.724;2023-03-31T00:56:12;8.10;99.90
3488;DHT22;38546;48.170;11.724;2023-03-31T00:59:03;8.20;99.90
3488;DHT22;38546;48.170;11.724;2023-03-31T01:01:56;8.20;99.90
3488;DHT22;38546;48.170;11.724;2023-03-31T01:04:54;8.20;99.90
3488;DHT22;38546;48.170;11.724;2023-03-31T01:07:48;8.30;99.90
3488;DHT22;38546;48.170;11.724;2023-03-31T01:10:51;8.30;99.90
3488;DHT22;38546;48.170;11.724;2023-03-31T01:13:42;8.40;99.90
3488;DHT22;38546;48.170;11.724;2023-03-31T01:16:32;8.40;99.90
3488;DHT22;38546;48.170;11.724;2023-03-31T01:32:36;8.40;99.90
3488;DHT22;38546;48.170;11.724;2023-03-31T01:37:36;8.50;99.90
3488;DHT22;38546;48.170;11.724;2023-03-31T01:46:24;8.40;99.90
3488;DHT22;38546;48.170;11.724;2023-03-31T01:51:13;8.30;99.90
3488;DHT22;38546;48.170;11.724;2023-03-31T01:54:20;8.30;99.90
3488;DHT22;38546;48.170;11.724;2023-03-31T01:57:17;8.20;99.90
3488;DHT22;38546;48.170;11.724;2023-03-31T02:00:26;8.30;99.90
3488;DHT22;38546;48.170;11.724;2023-03-31T02:03:21;8.30;99.90
3488;DHT22;38546;48.170;11.724;2023-03-31T02:06:18;8.30;99.90
3488;DHT22;38546;48.170;11.724;2023-03-31T02:09:14;8.30;99.90
3488;DHT22;38546;48.170;11.724;2023-03-31T02:12:08;8.40;99.90
3488;DHT22;38546;48.170;11.724;2023-03-31T02:15:02;8.40;99.90
3488;DHT22;38546;48.170;11.724;2023-03-31T02:17:56;8.40;99.90
3488;DHT22;38546;48.170;11.724;2023-03-31T02:20:48;8.40;99.90
3488;DHT22;38546;48.170;11.724;2023-03-31T02:23:38;8.40;99.90
3488;DHT22;38546;48.170;11.724;2023-03-31T02:26:30;8.50;99.90
3488;DHT22;38546;48.170;11.724;2023-03-31T02:29:24;8.50;99.90
3488;DHT22;38546;48.170;11.724;2023-03-31T02:32:28;8.50;99.90
3488;DHT22;38546;48.170;11.724;2023-03-31T02:35:20;8.50;99.90
3488;DHT22;38546;48.170;11.724;2023-03-31T02:38:11;8.60;99.90
3488;DHT22;38546;48.170;11.724;2023-03-31T02:41:00;8.60;99.90
3488;DHT22;38546;48.170;11.724;2023-03-31T02:43:49;8.60;99.90
3488;DHT22;38546;48.170;11.724;2023-03-31T02:46:39;8.60;99.90
3488;DHT22;38546;48.170;11.724;2023-03-31T02:49:29;8.60;99.90
3488;DHT22;38546;48.170;11.724;2023-03-31T02:52:49;8.60;99.90
3488;DHT22;38546;48.170;11.724;2023-03-31T03:07:41;8.70;99.90
3488;DHT22;38546;48.170;11.724;2023-03-31T03:13:40;8.70;99.90
3488;DHT22;38546;48.170;11.724;2023-03-31T03:16:41;8.90;99.90
3488;DHT22;38546;48.170;11.724;2023-03-31T03:19:33;8.80;99.90
3488;DHT22;38546;48.170;11.724;2023-03-31T03:22:22;8.70;99.90
3488;DHT22;38546;48.170;11.724;2023-03-31T03:25:13;8.70;99.90
3488;DHT22;38546;48.170;11.724;2023-03-31T03:28:05;8.60;99.90
3488;DHT22;38546;48.170;11.724;2023-03-31T03:30:55;8.70;99.90
3488;DHT22;38546;48.170;11.724;2023-03-31T03:33:45;8.70;99.90
3488;DHT22;38546;48.170;11.724;2023-03-31T03:36:35;8.70;99.90
3488;DHT22;38546;48.170;11.724;2023-03-31T03:39:25;8.60;99.90
3488;DHT22;38546;48.170;11.724;2023-03-31T03:42:15;8.80;99.90
3488;DHT22;38546;48.170;11.724;2023-03-31T03:45:05;8.80;99.90
3488;DHT22;38546;48.170;11.724;2023-03-31T03:47:55;9.00;99.90
3488;DHT22;38546;48.170;11.724;2023-03-31T03:50:45;9.00;99.90
3488;DHT22;38546;48.170;11.724;2023-03-31T03:53:35;9.00;99.90
3488;DHT22;38546;48.170;11.724;2023-03-31T03:56:24;8.90;99.90
3488;DHT22;38546;48.170;11.724;2023-03-31T03:59:14;9.00;99.90
3488;DHT22;38546;48.170;11.724;2023-03-31T04:02:04;9.00;99.90
3488;DHT22;38546;48.170;11.724;2023-03-31T04:04:53;9.00;99.90
3488;DHT22;38546;48.170;11.724;2023-03-31T04:07:42;8.80;99.90
3488;DHT22;38546;48.170;11.724;2023-03-31T04:10:31;8.70;99.90
3488;DHT22;38546;48.170;11.724;2023-03-31T04:13:21;8.90;99.90
3488;DHT22;38546;48.170;11.724;2023-03-31T04:16:11;8.70;99.90
3488;DHT22;38546;48.170;11.724;2023-03-31T04:19:00;8.80;99.90
3488;DHT22;38546;48.170;11.724;2023-03-31T04:21:52;8.80;99.90
3488;DHT22;38546;48.170;11.724;2023-03-31T04:24:46;8.70;99.90
3488;DHT22;38546;48.170;11.724;2023-03-31T04:27:45;8.70;99.90
3488;DHT22;38546;48.170;11.724;2023-03-31T04:30:39;8.70;99.90
3488;DHT22;38546;48.170;11.724;2023-03-31T04:33:28;8.60;99.90
3488;DHT22;38546;48.170;11.724;2023-03-31T04:36:18;8.70;99.90
3488;DHT22;38546;48.170;11.724;2023-03-31T04:39:08;8.60;99.90
3488;DHT22;38546;48.170;11.724;2023-03-31T04:42:01;8.60;99.90
3488;DHT22;38546;48.170;11.724;2023-03-31T04:44:51;8.60;99.90
3488;DHT22;38546;48.170;11.724;2023-03-31T04:47:40;8.60;99.90
3488;DHT22;38546;48.170;11.724;2023-03-31T04:50:30;8.60;99.90
3488;DHT22;38546;48.170;11.724;2023-03-31T04:53:20;8.60;99.90
3488;DHT22;38546;48.170;11.724;2023-03-31T04:56:11;8.60;99.90
3488;DHT22;38546;48.170;11.724;2023-03-31T04:59:00;8.60;99.90
3488;DHT22;38546;48.170;11.724;2023-03-31T05:01:51;8.60;99.90
3488;DHT22;38546;48.170;11.724;2023-03-31T05:04:40;8.60;99.90
3488;DHT22;38546;48.170;11.724;2023-03-31T05:07:30;8.60;99.90
3488;DHT22;38546;48.170;11.724;2023-03-31T05:10:19;8.60;99.90
3488;DHT22;38546;48.170;11.724;2023-03-31T05:13:09;8.60;99.90
3488;DHT22;38546;48.170;11.724;2023-03-31T05:16:09;8.50;99.90
3488;DHT22;38546;48.170;11.724;2023-03-31T05:19:02;8.50;99.90
3488;DHT22;38546;48.170;11.724;2023-03-31T05:21:51;8.40;99.90
3488;DHT22;38546;48.170;11.724;2023-03-31T05:24:41;8.40;99.90
3488;DHT22;38546;48.170;11.724;2023-03-31T05:27:31;8.40;99.90
3488;DHT22;38546;48.170;11.724;2023-03-31T05:30:21;8.40;99.90
3488;DHT22;38546;48.170;11.724;2023-03-31T05:33:10;8.30;99.90
3488;DHT22;38546;48.170;11.724;2023-03-31T05:35:59;8.40;99.90
3488;DHT22;38546;48.170;11.724;2023-03-31T05:38:49;8.30;99.90
3488;DHT22;38546;48.170;11.724;2023-03-31T05:41:40;8.30;99.90
3488;DHT22;38546;48.170;11.724;2023-03-31T05:44:29;8.30;99.90
3488;DHT22;38546;48.170;11.724;2023-03-31T05:47:19;8.30;99.90
3488;DHT22;38546;48.170;11.724;2023-03-31T05:50:09;8.40;99.90
3488;DHT22;38546;48.170;11.724;2023-03-31T05:52:58;8.40;99.90
3488;DHT22;38546;48.170;11.724;2023-03-31T05:55:47;8.40;99.90
3488;DHT22;38546;48.170;11.724;2023-03-31T05:58:36;8.40;99.90
3488;DHT22;38546;48.170;11.724;2023-03-31T06:01:26;8.40;99.90
3488;DHT22;38546;48.170;11.724;2023-03-31T06:04:15;8.40;99.90
3488;DHT22;38546;48.170;11.724;2023-03-31T06:07:04;8.50;99.90
3488;DHT22;38546;48.170;11.724;2023-03-31T06:09:53;8.60;99.90
3488;DHT22;38546;48.170;11.724;2023-03-31T06:12:43;8.50;99.90
3488;DHT22;38546;48.170;11.724;2023-03-31T06:15:31;8.50;99.90
3488;DHT22;38546;48.170;11.724;2023-03-31T06:18:20;8.60;99.90
3488;DHT22;38546;48.170;11.724;2023-03-31T06:21:11;8.60;99.90
3488;DHT22;38546;48.170;11.724;2023-03-31T06:24:02;8.70;99.90
3488;DHT22;38546;48.170;11.724;2023-03-31T06:26:50;8.80;99.90
3488;DHT22;38546;48.170;11.724;2023-03-31T06:29:40;8.80;99.90
3488;DHT22;38546;48.170;11.724;2023-03-31T06:32:29;8.90;99.90
3488;DHT22;38546;48.170;11.724;2023-03-31T06:35:17;8.90;99.90
3488;DHT22;38546;48.170;11.724;2023-03-31T06:38:07;8.90;99.90
3488;DHT22;38546;48.170;11.724;2023-03-31T06:40:56;9.00;99.90
3488;DHT22;38546;48.170;11.724;2023-03-31T06:43:45;9.00;99.90
3488;DHT22;38546;48.170;11.724;2023-03-31T06:46:34;9.10;99.90
3488;DHT22;38546;48.170;11.724;2023-03-31T06:49:23;9.10;99.90
3488;DHT22;38546;48.170;11.724;2023-03-31T06:52:13;9.10;99.90
3488;DHT22;38546;48.170;11.724;2023-03-31T06:55:03;9.10;99.90
3488;DHT22;38546;48.170;11.724;2023-03-31T06:57:53;9.20;99.90
3488;DHT22;38546;48.170;11.724;2023-03-31T07:00:42;9.20;99.90
3488;DHT22;38546;48.170;11.724;2023-03-31T07:03:33;9.30;99.90
3488;DHT22;38546;48.170;11.724;2023-03-31T07:06:22;9.30;99.90
3488;DHT22;38546;48.170;11.724;2023-03-31T07:09:11;9.30;99.90
3488;DHT22;38546;48.170;11.724;2023-03-31T07:12:00;9.30;99.90
3488;DHT22;38546;48.170;11.724;2023-03-31T07:14:52;9.40;99.90
3488;DHT22;38546;48.170;11.724;2023-03-31T07:17:42;9.40;99.90
3488;DHT22;38546;48.170;11.724;2023-03-31T07:20:31;9.40;99.90
3488;DHT22;38546;48.170;11.724;2023-03-31T07:23:20;9.50;99.90
3488;DHT22;38546;48.170;11.724;2023-03-31T07:26:10;9.50;99.90
3488;DHT22;38546;48.170;11.724;2023-03-31T07:28:59;9.60;99.90
3488;DHT22;38546;48.170;11.724;2023-03-31T07:31:48;9.50;99.90
3488;DHT22;38546;48.170;11.724;2023-03-31T07:34:37;9.40;99.90
3488;DHT22;38546;48.170;11.724;2023-03-31T07:37:29;9.30;99.90
3488;DHT22;38546;48.170;11.724;2023-03-31T07:40:25;9.30;99.90
3488;DHT22;38546;48.170;11.724;2023-03-31T07:43:16;9.20;99.90
3488;DHT22;38546;48.170;11.724;2023-03-31T07:46:05;9.30;99.90
3488;DHT22;38546;48.170;11.724;2023-03-31T07:48:56;9.30;99.90
3488;DHT22;38546;48.170;11.724;2023-03-31T07:51:46;9.30;99.90
3488;DHT22;38546;48.170;11.724;2023-03-31T07:54:35;9.30;99.90
3488;DHT22;38546;48.170;11.724;2023-03-31T07:57:24;9.30;99.90
3488;DHT22;38546;48.170;11.724;2023-03-31T08:00:15;9.30;99.90
3488;DHT22;38546;48.170;11.724;2023-03-31T08:03:05;9.30;99.90
3488;DHT22;38546;48.170;11.724;2023-03-31T08:05:55;9.30;99.90
3488;DHT22;38546;48.170;11.724;2023-03-31T08:08:44;9.30;99.90
3488;DHT22;38546;48.170;11.724;2023-03-31T08:11:34;9.30;99.90
3488;DHT22;38546;48.170;11.724;2023-03-31T08:14:23;9.30;99.90
3488;DHT22;38546;48.170;11.724;2023-03-31T08:17:13;9.40;99.90
3488;DHT22;38546;48.170;11.724;2023-03-31T08:20:03;9.50;99.90
3488;DHT22;38546;48.170;11.724;2023-03-31T08:22:58;9.60;99.90
3488;DHT22;38546;48.170;11.724;2023-03-31T08:25:47;9.70;99.90
3488;DHT22;38546;48.170;11.724;2023-03-31T08:28:36;9.80;99.90
3488;DHT22;38546;48.170;11.724;2023-03-31T08:31:26;9.80;99.90
3488;DHT22;38546;48.170;11.724;2023-03-31T08:34:17;9.80;99.90
3488;DHT22;38546;48.170;11.724;2023-03-31T08:37:05;9.80;99.90
3488;DHT22;38546;48.170;11.724;2023-03-31T08:39:55;9.80;99.90
3488;DHT22;38546;48.170;11.724;2023-03-31T08:42:46;9.80;99.90
3488;DHT22;38546;48.170;11.724;2023-03-31T08:45:43;9.80;99.90
3488;DHT22;38546;48.170;11.724;2023-03-31T08:48:38;10.00;99.90
3488;DHT22;38546;48.170;11.724;2023-03-31T08:51:40;10.00;99.90
3488;DHT22;38546;48.170;11.724;2023-03-31T08:54:35;10.20;99.90
3488;DHT22;38546;48.170;11.724;2023-03-31T08:57:39;10.20;99.90
3488;DHT22;38546;48.170;11.724;2023-03-31T09:00:45;10.10;99.90
3488;DHT22;38546;48.170;11.724;2023-03-31T09:07:58;10.30;99.90
3488;DHT22;38546;48.170;11.724;2023-03-31T09:11:46;10.80;99.90
3488;DHT22;38546;48.170;11.724;2023-03-31T09:15:01;10.80;99.90
3488;DHT22;38546;48.170;11.724;2023-03-31T09:17:54;11.00;99.90
3488;DHT22;38546;48.170;11.724;2023-03-31T09:20:50;10.90;99.90
3488;DHT22;38546;48.170;11.724;2023-03-31T09:23:45;11.10;99.90
3488;DHT22;38546;48.170;11.724;2023-03-31T09:26:40;11.30;99.90
3488;DHT22;38546;48.170;11.724;2023-03-31T09:29:54;11.40;99.90
3488;DHT22;38546;48.170;11.724;2023-03-31T09:33:28;11.50;99.90
3488;DHT22;38546;48.170;11.724;2023-03-31T09:36:21;11.80;99.90
3488;DHT22;38546;48.170;11.724;2023-03-31T09:39:12;11.90;99.90
3488;DHT22;38546;48.170;11.724;2023-03-31T09:42:03;12.10;99.90
3488;DHT22;38546;48.170;11.724;2023-03-31T09:44:52;12.40;99.90
3488;DHT22;38546;48.170;11.724;2023-03-31T09:47:46;12.80;99.90
3488;DHT22;38546;48.170;11.724;2023-03-31T09:50:45;12.90;99.90
3488;DHT22;38546;48.170;11.724;2023-03-31T09:53:41;13.30;99.90
3488;DHT22;38546;48.170;11.724;2023-03-31T09:56:47;13.70;99.90
3488;DHT22;38546;48.170;11.724;2023-03-31T09:59:40;13.70;99.90
3488;DHT22;38546;48.170;11.724;2023-03-31T10:02:36;13.50;99.90
3488;DHT22;38546;48.170;11.724;2023-03-31T10:05:46;13.30;99.90
3488;DHT22;38546;48.170;11.724;2023-03-31T10:12:05;13.60;99.90
3488;DHT22;38546;48.170;11.724;2023-03-31T10:15:16;13.70;99.90
3488;DHT22;38546;48.170;11.724;2023-03-31T10:18:17;13.60;99.90
3488;DHT22;38546;48.170;11.724;2023-03-31T10:21:22;13.80;99.90
3488;DHT22;38546;48.170;11.724;2023-03-31T10:24:18;13.70;99.90
3488;DHT22;38546;48.170;11.724;2023-03-31T10:27:21;14.00;99.90
3488;DHT22;38546;48.170;11.724;2023-03-31T10:30:20;14.10;99.90
3488;DHT22;38546;48.170;11.724;2023-03-31T10:33:13;13.90;99.90
3488;DHT22;38546;48.170;11.724;2023-03-31T10:36:17;13.70;99.90
3488;DHT22;38546;48.170;11.724;2023-03-31T10:39:14;13.70;99.90
3488;DHT22;38546;48.170;11.724;2023-03-31T10:42:05;13.90;99.90
3488;DHT22;38546;48.170;11.724;2023-03-31T10:45:23;14.00;99.90
3488;DHT22;38546;48.170;11.724;2023-03-31T10:48:34;14.70;99.90
3488;DHT22;38546;48.170;11.724;2023-03-31T10:51:29;15.10;99.90
3488;DHT22;38546;48.170;11.724;2023-03-31T10:54:19;15.60;99.90
3488;DHT22;38546;48.170;11.724;2023-03-31T10:57:08;16.00;99.90
3488;DHT22;38546;48.170;11.724;2023-03-31T11:00:06;16.10;99.90
3488;DHT22;38546;48.170;11.724;2023-03-31T11:19:10;15.90;99.90
3488;DHT22;38546;48.170;11.724;2023-03-31T11:29:01;15.30;99.90
3488;DHT22;38546;48.170;11.724;2023-03-31T11:32:26;14.50;99.90
3488;DHT22;38546;48.170;11.724;2023-03-31T11:35:41;14.10;99.90
3488;DHT22;38546;48.170;11.724;2023-03-31T11:39:32;13.30;99.90
3488;DHT22;38546;48.170;11.724;2023-03-31T11:42:46;12.30;99.90
3488;DHT22;38546;48.170;11.724;2023-03-31T11:45:43;11.50;99.90
3488;DHT22;38546;48.170;11.724;2023-03-31T11:48:58;11.20;99.90
3488;DHT22;38546;48.170;11.724;2023-03-31T11:52:02;11.10;99.90
3488;DHT22;38546;48.170;11.724;2023-03-31T11:55:11;11.00;99.90
3488;DHT22;38546;48.170;11.724;2023-03-31T11:58:20;11.20;99.90
3488;DHT22;38546;48.170;11.724;2023-03-31T12:01:23;11.60;99.90
3488;DHT22;38546;48.170;11.724;2023-03-31T12:04:32;11.80;99.90
3488;DHT22;38546;48.170;11.724;2023-03-31T12:07:31;11.80;99.90
3488;DHT22;38546;48.170;11.724;2023-03-31T12:10:37;11.70;99.90
3488;DHT22;38546;48.170;11.724;2023-03-31T12:13:51;12.10;99.90
3488;DHT22;38546;48.170;11.724;2023-03-31T12:16:46;12.20;99.90
3488;DHT22;38546;48.170;11.724;2023-03-31T12:20:19;12.40;99.90
3488;DHT22;38546;48.170;11.724;2023-03-31T12:23:42;12.70;99.90
3488;DHT22;38546;48.170;11.724;2023-03-31T12:26:52;12.90;99.90
3488;DHT22;38546;48.170;11.724;2023-03-31T12:29:59;13.20;99.90
3488;DHT22;38546;48.170;11.724;2023-03-31T12:33:39;13.40;99.90
3488;DHT22;38546;48.170;11.724;2023-03-31T12:36:54;13.50;99.90
3488;DHT22;38546;48.170;11.724;2023-03-31T12:40:14;13.40;99.90
3488;DHT22;38546;48.170;11.724;2023-03-31T12:43:32;13.50;99.90
3488;DHT22;38546;48.170;11.724;2023-03-31T12:48:51;13.70;99.90
3488;DHT22;38546;48.170;11.724;2023-03-31T12:58:45;13.80;99.90
3488;DHT22;38546;48.170;11.724;2023-03-31T13:02:19;13.80;99.90
3488;DHT22;38546;48.170;11.724;2023-03-31T13:05:42;13.80;99.90
3488;DHT22;38546;48.170;11.724;2023-03-31T13:09:37;13.70;99.90
3488;DHT22;38546;48.170;11.724;2023-03-31T13:13:16;14.20;99.90
3488;DHT22;38546;48.170;11.724;2023-03-31T13:16:06;14.30;99.90
3488;DHT22;38546;48.170;11.724;2023-03-31T13:18:56;14.40;99.90
3488;DHT22;38546;48.170;11.724;2023-03-31T13:21:54;14.20;99.90
3488;DHT22;38546;48.170;11.724;2023-03-31T13:24:44;14.10;99.90
3488;DHT22;38546;48.170;11.724;2023-03-31T13:27:47;13.90;99.90
3488;DHT22;38546;48.170;11.724;2023-03-31T13:31:23;13.70;99.90
3488;DHT22;38546;48.170;11.724;2023-03-31T13:35:06;13.60;99.90
3488;DHT22;38546;48.170;11.724;2023-03-31T13:38:44;13.70;99.90
3488;DHT22;38546;48.170;11.724;2023-03-31T13:41:57;13.50;99.90
3488;DHT22;38546;48.170;11.724;2023-03-31T13:45:19;13.40;99.90
3488;DHT22;38546;48.170;11.724;2023-03-31T13:50:14;13.40;99.90
3488;DHT22;38546;48.170;11.724;2023-03-31T13:54:50;13.70;99.90
3488;DHT22;38546;48.170;11.724;2023-03-31T14:12:39;14.10;99.90
3488;DHT22;38546;48.170;11.724;2023-03-31T14:15:28;14.30;99.90
3488;DHT22;38546;48.170;11.724;2023-03-31T14:18:23;14.10;99.90
3488;DHT22;38546;48.170;11.724;2023-03-31T14:21:30;13.80;99.90
3488;DHT22;38546;48.170;11.724;2023-03-31T14:24:43;13.70;99.90
3488;DHT22;38546;48.170;11.724;2023-03-31T14:34:36;13.60;99.90
3488;DHT22;38546;48.170;11.724;2023-03-31T14:37:31;13.70;99.90
3488;DHT22;38546;48.170;11.724;2023-03-31T14:40:22;13.70;99.90
3488;DHT22;38546;48.170;11.724;2023-03-31T14:43:24;13.70;99.90
3488;DHT22;38546;48.170;11.724;2023-03-31T14:46:20;13.80;99.90
3488;DHT22;38546;48.170;11.724;2023-03-31T14:51:47;13.60;99.90
3488;DHT22;38546;48.170;11.724;2023-03-31T14:54:36;12.30;99.90
3488;DHT22;38546;48.170;11.724;2023-03-31T14:57:32;10.90;99.90
3488;DHT22;38546;48.170;11.724;2023-03-31T15:00:28;10.20;99.90
3488;DHT22;38546;48.170;11.724;2023-03-31T15:03:19;9.80;99.90
3488;DHT22;38546;48.170;11.724;2023-03-31T15:06:10;9.60;99.90
3488;DHT22;38546;48.170;11.724;2023-03-31T15:09:02;9.40;99.90
3488;DHT22;38546;48.170;11.724;2023-03-31T15:12:00;9.30;99.90
3488;DHT22;38546;48.170;11.724;2023-03-31T15:14:55;9.20;99.90
3488;DHT22;38546;48.170;11.724;2023-03-31T15:17:46;9.20;99.90
3488;DHT22;38546;48.170;11.724;2023-03-31T15:20:37;9.30;99.90
3488;DHT22;38546;48.170;11.724;2023-03-31T15:23:27;9.70;99.90
3488;DHT22;38546;48.170;11.724;2023-03-31T15:26:17;9.90;99.90
3488;DHT22;38546;48.170;11.724;2023-03-31T15:29:19;10.20;99.90
3488;DHT22;38546;48.170;11.724;2023-03-31T15:32:16;10.50;99.90
3488;DHT22;38546;48.170;11.724;2023-03-31T15:35:32;10.50;99.90
3488;DHT22;38546;48.170;11.724;2023-03-31T15:38:26;10.80;99.90
3488;DHT22;38546;48.170;11.724;2023-03-31T15:41:16;10.80;99.90
3488;DHT22;38546;48.170;11.724;2023-03-31T15:54:32;11.20;99.90
3488;DHT22;38546;48.170;11.724;2023-03-31T15:57:32;11.40;99.90
3488;DHT22;38546;48.170;11.724;2023-03-31T16:00:46;11.60;99.90
3488;DHT22;38546;48.170;11.724;2023-03-31T16:03:40;11.50;99.90
3488;DHT22;38546;48.170;11.724;2023-03-31T16:08:00;11.50;99.90
3488;DHT22;38546;48.170;11.724;2023-03-31T16:11:00;11.70;99.90
3488;DHT22;38546;48.170;11.724;2023-03-31T16:13:54;11.80;99.90
3488;DHT22;38546;48.170;11.724;2023-03-31T16:16:47;11.80;99.90
3488;DHT22;38546;48.170;11.724;2023-03-31T16:19:52;12.00;99.90
3488;DHT22;38546;48.170;11.724;2023-03-31T16:22:47;12.10;99.90
3488;DHT22;38546;48.170;11.724;2023-03-31T16:25:39;12.40;99.90
3488;DHT22;38546;48.170;11.724;2023-03-31T16:28:32;12.60;99.90
3488;DHT22;38546;48.170;11.724;2023-03-31T16:31:43;12.60;99.90
3488;DHT22;38546;48.170;11.724;2023-03-31T16:34:32;12.60;99.90
3488;DHT22;38546;48.170;11.724;2023-03-31T16:37:21;12.70;99.90
3488;DHT22;38546;48.170;11.724;2023-03-31T16:40:10;12.60;99.90
3488;DHT22;38546;48.170;11.724;2023-03-31T16:43:21;12.60;99.90
3488;DHT22;38546;48.170;11.724;2023-03-31T16:46:14;12.50;99.90
3488;DHT22;38546;48.170;11.724;2023-03-31T16:49:03;12.50;99.90
3488;DHT22;38546;48.170;11.724;2023-03-31T16:51:53;12.50;99.90
3488;DHT22;38546;48.170;11.724;2023-03-31T16:54:42;12.30;99.90
3488;DHT22;38546;48.170;11.724;2023-03-31T16:57:31;12.30;99.90
3488;DHT22;38546;48.170;11.724;2023-03-31T17:00:20;12.20;99.90
3488;DHT22;38546;48.170;11.724;2023-03-31T17:03:09;12.20;99.90
3488;DHT22;38546;48.170;11.724;2023-03-31T17:06:05;12.30;99.90
3488;DHT22;38546;48.170;11.724;2023-03-31T17:08:58;12.20;99.90
3488;DHT22;38546;48.170;11.724;2023-03-31T17:11:49;11.90;99.90
3488;DHT22;38546;48.170;11.724;2023-03-31T17:14:38;11.00;99.90
3488;DHT22;38546;48.170;11.724;2023-03-31T17:17:28;10.20;99.90
3488;DHT22;38546;48.170;11.724;2023-03-31T17:20:18;9.60;99.90
3488;DHT22;38546;48.170;11.724;2023-03-31T17:23:07;9.30;99.90
3488;DHT22;38546;48.170;11.724;2023-03-31T17:25:56;9.00;99.90
3488;DHT22;38546;48.170;11.724;2023-03-31T17:28:45;8.90;99.90
3488;DHT22;38546;48.170;11.724;2023-03-31T17:31:34;8.80;99.90
3488;DHT22;38546;48.170;11.724;2023-03-31T17:34:23;8.80;99.90
3488;DHT22;38546;48.170;11.724;2023-03-31T17:37:13;8.60;99.90
3488;DHT22;38546;48.170;11.724;2023-03-31T17:40:04;8.60;99.90
3488;DHT22;38546;48.170;11.724;2023-03-31T17:42:54;8.70;99.90
3488;DHT22;38546;48.170;11.724;2023-03-31T17:45:44;8.60;99.90
3488;DHT22;38546;48.170;11.724;2023-03-31T17:48:33;8.60;99.90
3488;DHT22;38546;48.170;11.724;2023-03-31T17:51:22;8.70;99.90
3488;DHT22;38546;48.170;11.724;2023-03-31T17:54:11;8.70;99.90
3488;DHT22;38546;48.170;11.724;2023-03-31T17:57:01;8.80;99.90
3488;DHT22;38546;48.170;11.724;2023-03-31T17:59:50;8.80;99.90
3488;DHT22;38546;48.170;11.724;2023-03-31T18:02:39;8.80;99.90
3488;DHT22;38546;48.170;11.724;2023-03-31T18:05:29;8.80;99.90
3488;DHT22;38546;48.170;11.724;2023-03-31T18:08:20;8.70;99.90
3488;DHT22;38546;48.170;11.724;2023-03-31T18:11:09;8.80;99.90
3488;DHT22;38546;48.170;11.724;2023-03-31T18:13:58;9.00;99.90
3488;DHT22;38546;48.170;11.724;2023-03-31T18:16:49;9.00;99.90
3488;DHT22;38546;48.170;11.724;2023-03-31T18:19:40;9.10;99.90
3488;DHT22;38546;48.170;11.724;2023-03-31T18:22:30;9.10;99.90
3488;DHT22;38546;48.170;11.724;2023-03-31T18:25:20;9.00;99.90
3488;DHT22;38546;48.170;11.724;2023-03-31T18:28:09;8.80;99.90
3488;DHT22;38546;48.170;11.724;2023-03-31T18:31:06;9.00;99.90
3488;DHT22;38546;48.170;11.724;2023-03-31T18:33:56;9.00;99.90
3488;DHT22;38546;48.170;11.724;2023-03-31T18:36:45;9.20;99.90
3488;DHT22;38546;48.170;11.724;2023-03-31T18:39:34;9.10;99.90
3488;DHT22;38546;48.170;11.724;2023-03-31T18:42:23;9.20;99.90
3488;DHT22;38546;48.170;11.724;2023-03-31T18:45:13;9.00;99.90
3488;DHT22;38546;48.170;11.724;2023-03-31T18:48:03;9.00;99.90
3488;DHT22;38546;48.170;11.724;2023-03-31T18:50:53;9.20;99.90
3488;DHT22;38546;48.170;11.724;2023-03-31T18:53:42;9.10;99.90
3488;DHT22;38546;48.170;11.724;2023-03-31T18:56:31;9.10;99.90
3488;DHT22;38546;48.170;11.724;2023-03-31T18:59:21;9.00;99.90
3488;DHT22;38546;48.170;11.724;2023-03-31T19:02:16;9.10;99.90
3488;DHT22;38546;48.170;11.724;2023-03-31T19:05:06;9.10;99.90
3488;DHT22;38546;48.170;11.724;2023-03-31T19:07:55;9.20;99.90
3488;DHT22;38546;48.170;11.724;2023-03-31T19:10:44;9.20;99.90
3488;DHT22;38546;48.170;11.724;2023-03-31T19:13:34;9.10;99.90
3488;DHT22;38546;48.170;11.724;2023-03-31T19:16:23;9.00;99.90
3488;DHT22;38546;48.170;11.724;2023-03-31T19:19:14;9.10;99.90
3488;DHT22;38546;48.170;11.724;2023-03-31T19:22:03;9.30;99.90
3488;DHT22;38546;48.170;11.724;2023-03-31T19:24:52;9.20;99.90
3488;DHT22;38546;48.170;11.724;2023-03-31T19:27:42;9.10;99.90
3488;DHT22;38546;48.170;11.724;2023-03-31T19:30:31;9.10;99.90
3488;DHT22;38546;48.170;11.724;2023-03-31T19:33:23;9.10;99.90
3488;DHT22;38546;48.170;11.724;2023-03-31T19:36:12;8.90;99.90
3488;DHT22;38546;48.170;11.724;2023-03-31T19:39:03;9.00;99.90
3488;DHT22;38546;48.170;11.724;2023-03-31T19:41:54;9.00;99.90
3488;DHT22;38546;48.170;11.724;2023-03-31T19:44:43;9.00;99.90
3488;DHT22;38546;48.170;11.724;2023-03-31T19:47:33;8.90;99.90
3488;DHT22;38546;48.170;11.724;2023-03-31T19:50:22;9.20;99.90
3488;DHT22;38546;48.170;11.724;2023-03-31T19:53:11;9.20;99.90
3488;DHT22;38546;48.170;11.724;2023-03-31T19:56:10;9.20;99.90
3488;DHT22;38546;48.170;11.724;2023-03-31T19:59:01;9.20;99.90
3488;DHT22;38546;48.170;11.724;2023-03-31T20:01:50;9.00;99.90
3488;DHT22;38546;48.170;11.724;2023-03-31T20:04:39;9.10;99.90
3488;DHT22;38546;48.170;11.724;2023-03-31T20:07:29;9.20;99.90
3488;DHT22;38546;48.170;11.724;2023-03-31T20:10:18;9.30;99.90
3488;DHT22;38546;48.170;11.724;2023-03-31T20:13:08;9.40;99.90
3488;DHT22;38546;48.170;11.724;2023-03-31T20:15:59;9.40;99.90
3488;DHT22;38546;48.170;11.724;2023-03-31T20:19:10;9.40;99.90
3488;DHT22;38546;48.170;11.724;2023-03-31T20:22:00;9.40;99.90
3488;DHT22;38546;48.170;11.724;2023-03-31T20:24:49;9.40;99.90
3488;DHT22;38546;48.170;11.724;2023-03-31T20:27:39;9.40;99.90
3488;DHT22;38546;48.170;11.724;2023-03-31T20:30:28;9.40;99.90
3488;DHT22;38546;48.170;11.724;2023-03-31T20:33:16;9.50;99.90
3488;DHT22;38546;48.170;11.724;2023-03-31T20:36:08;9.40;99.90